sensor_id;sensor_type;location;lat;lon;timestamp;temperature;humidity
2282;DHT22;27486;48.77806476;9.16920056;2022-10-16T00:01:32;18.80;99.10
2282;DHT22;27486;48.77806476;9.16920056;2022-10-16T00:04:17;18.80;98.90
2282;DHT22;27486;48.77806476;9.16920056;2022-10-16T00:07:01;18.70;98.80
2282;DHT22;27486;48.77806476;9.16920056;2022-10-16T00:09:46;18.80;98.90
2282;DHT22;27486;48.77806476;9.16920056;2022-10-16T00:12:30;18.80;98.90
2282;DHT22;27486;48.77806476;9.16920056;2022-10-16T00:15:15;18.70;98.90
2282;DHT22;27486;48.77806476;9.16920056;2022-10-16T00:17:59;18.70;98.90
2282;DHT22;27486;48.77806476;9.16920056;2022-10-16T00:20:43;18.70;98.90
2282;DHT22;27486;48.77806476;9.16920056;2022-10-16T00:23:27;18.60;99.00
2282;DHT22;27486;48.77806476;9.16920056;2022-10-16T00:26:14;18.60;99.10
2282;DHT22;27486;48.77806476;9.16920056;2022-10-16T00:28:58;18.50;99.20
2282;DHT22;27486;48.77806476;9.16920056;2022-10-16T00:31:42;18.50;99.40
2282;DHT22;27486;48.77806476;9.16920056;2022-10-16T00:34:26;18.40;99.60
2282;DHT22;27486;48.77806476;9.16920056;2022-10-16T00:37:10;18.40;99.70
2282;DHT22;27486;48.77806476;9.16920056;2022-10-16T00:39:54;18.30;99.80
2282;DHT22;27486;48.77806476;9.16920056;2022-10-16T00:42:39;18.20;99.90
2282;DHT22;27486;48.77806476;9.16920056;2022-10-16T00:45:23;18.20;99.90
2282;DHT22;27486;48.77806476;9.16920056;2022-10-16T00:48:11;18.20;99.90
2282;DHT22;27486;48.77806476;9.16920056;2022-10-16T00:50:57;18.20;99.90
2282;DHT22;27486;48.77806476;9.16920056;2022-10-16T00:53:41;18.20;99.90
2282;DHT22;27486;48.77806476;9.16920056;2022-10-16T00:56:26;18.20;99.90
2282;DHT22;27486;48.77806476;9.16920056;2022-10-16T01:02:15;18.20;99.90
2282;DHT22;27486;48.77806476;9.16920056;2022-10-16T01:04:59;18.20;99.90
2282;DHT22;27486;48.77806476;9.16920056;2022-10-16T01:07:47;18.30;99.90
2282;DHT22;27486;48.77806476;9.16920056;2022-10-16T01:10:38;18.30;99.90
2282;DHT22;27486;48.77806476;9.16920056;2022-10-16T01:13:31;18.30;99.90
2282;DHT22;27486;48.77806476;9.16920056;2022-10-16T01:16:34;18.30;99.90
2282;DHT22;27486;48.77806476;9.16920056;2022-10-16T01:22:26;18.40;99.90
2282;DHT22;27486;48.77806476;9.16920056;2022-10-16T01:25:30;18.40;99.90
2282;DHT22;27486;48.77806476;9.16920056;2022-10-16T01:28:15;18.40;99.90
2282;DHT22;27486;48.77806476;9.16920056;2022-10-16T01:31:01;18.40;99.90
2282;DHT22;27486;48.77806476;9.16920056;2022-10-16T01:33:51;18.40;99.90
2282;DHT22;27486;48.77806476;9.16920056;2022-10-16T01:36:45;18.40;99.90
2282;DHT22;27486;48.77806476;9.16920056;2022-10-16T01:39:33;18.40;99.90
2282;DHT22;27486;48.77806476;9.16920056;2022-10-16T01:42:24;18.30;99.90
2282;DHT22;27486;48.77806476;9.16920056;2022-10-16T01:45:13;18.40;99.90
2282;DHT22;27486;48.77806476;9.16920056;2022-10-16T01:48:00;18.40;99.90
2282;DHT22;27486;48.77806476;9.16920056;2022-10-16T01:51:05;18.40;99.90
2282;DHT22;27486;48.77806476;9.16920056;2022-10-16T01:53:54;18.40;99.90
2282;DHT22;27486;48.77806476;9.16920056;2022-10-16T01:56:39;18.40;99.90
2282;DHT22;27486;48.77806476;9.16920056;2022-10-16T01:59:26;18.50;99.90
2282;DHT22;27486;48.77806476;9.16920056;2022-10-16T02:02:13;18.40;99.90
2282;DHT22;27486;48.77806476;9.16920056;2022-10-16T02:05:04;18.50;99.90
2282;DHT22;27486;48.77806476;9.16920056;2022-10-16T02:07:49;18.40;99.90
2282;DHT22;27486;48.77806476;9.16920056;2022-10-16T02:10:35;18.40;99.90
2282;DHT22;27486;48.77806476;9.16920056;2022-10-16T02:13:33;18.50;99.90
2282;DHT22;27486;48.77806476;9.16920056;2022-10-16T02:16:18;18.50;99.90
2282;DHT22;27486;48.77806476;9.16920056;2022-10-16T02:19:03;18.50;99.80
2282;DHT22;27486;48.77806476;9.16920056;2022-10-16T02:21:56;18.40;99.90
2282;DHT22;27486;48.77806476;9.16920056;2022-10-16T02:25:09;18.50;99.90
2282;DHT22;27486;48.77806476;9.16920056;2022-10-16T02:28:01;18.50;99.90
2282;DHT22;27486;48.77806476;9.16920056;2022-10-16T02:30:59;18.40;99.90
2282;DHT22;27486;48.77806476;9.16920056;2022-10-16T02:33:45;18.50;99.80
2282;DHT22;27486;48.77806476;9.16920056;2022-10-16T02:36:30;18.50;99.50
2282;DHT22;27486;48.77806476;9.16920056;2022-10-16T02:39:16;18.50;99.60
2282;DHT22;27486;48.77806476;9.16920056;2022-10-16T02:42:01;18.50;99.40
2282;DHT22;27486;48.77806476;9.16920056;2022-10-16T02:44:45;18.60;99.40
2282;DHT22;27486;48.77806476;9.16920056;2022-10-16T02:47:29;18.60;99.30
2282;DHT22;27486;48.77806476;9.16920056;2022-10-16T02:50:13;18.60;99.30
2282;DHT22;27486;48.77806476;9.16920056;2022-10-16T02:52:58;18.60;99.30
2282;DHT22;27486;48.77806476;9.16920056;2022-10-16T02:55:42;18.60;99.10
2282;DHT22;27486;48.77806476;9.16920056;2022-10-16T02:58:25;18.60;99.10
2282;DHT22;27486;48.77806476;9.16920056;2022-10-16T03:01:10;18.60;99.30
2282;DHT22;27486;48.77806476;9.16920056;2022-10-16T03:03:55;18.60;99.30
2282;DHT22;27486;48.77806476;9.16920056;2022-10-16T03:06:39;18.60;99.20
2282;DHT22;27486;48.77806476;9.16920056;2022-10-16T03:09:23;18.60;99.20
2282;DHT22;27486;48.77806476;9.16920056;2022-10-16T03:12:07;18.60;99.20
2282;DHT22;27486;48.77806476;9.16920056;2022-10-16T03:14:51;18.50;99.20
2282;DHT22;27486;48.77806476;9.16920056;2022-10-16T03:17:35;18.50;99.30
2282;DHT22;27486;48.77806476;9.16920056;2022-10-16T03:20:19;18.50;99.20
2282;DHT22;27486;48.77806476;9.16920056;2022-10-16T03:23:03;18.50;99.20
2282;DHT22;27486;48.77806476;9.16920056;2022-10-16T03:25:47;18.60;99.30
2282;DHT22;27486;48.77806476;9.16920056;2022-10-16T03:28:31;18.50;99.20
2282;DHT22;27486;48.77806476;9.16920056;2022-10-16T03:31:15;18.50;99.30
2282;DHT22;27486;48.77806476;9.16920056;2022-10-16T03:33:59;18.50;99.40
2282;DHT22;27486;48.77806476;9.16920056;2022-10-16T03:36:43;18.40;99.50
2282;DHT22;27486;48.77806476;9.16920056;2022-10-16T03:39:27;18.50;99.40
2282;DHT22;27486;48.77806476;9.16920056;2022-10-16T03:42:11;18.40;99.50
2282;DHT22;27486;48.77806476;9.16920056;2022-10-16T03:44:56;18.50;99.40
2282;DHT22;27486;48.77806476;9.16920056;2022-10-16T03:47:40;18.40;99.30
2282;DHT22;27486;48.77806476;9.16920056;2022-10-16T03:50:24;18.40;99.40
2282;DHT22;27486;48.77806476;9.16920056;2022-10-16T03:53:08;18.40;99.60
2282;DHT22;27486;48.77806476;9.16920056;2022-10-16T03:55:52;18.40;99.60
2282;DHT22;27486;48.77806476;9.16920056;2022-10-16T03:58:36;18.30;99.70
2282;DHT22;27486;48.77806476;9.16920056;2022-10-16T04:01:20;18.30;99.80
2282;DHT22;27486;48.77806476;9.16920056;2022-10-16T04:04:04;18.30;99.90
2282;DHT22;27486;48.77806476;9.16920056;2022-10-16T04:06:48;18.30;99.90
2282;DHT22;27486;48.77806476;9.16920056;2022-10-16T04:09:32;18.30;99.90
2282;DHT22;27486;48.77806476;9.16920056;2022-10-16T04:12:16;18.30;99.90
2282;DHT22;27486;48.77806476;9.16920056;2022-10-16T04:15:00;18.30;99.90
2282;DHT22;27486;48.77806476;9.16920056;2022-10-16T04:17:44;18.20;99.90
2282;DHT22;27486;48.77806476;9.16920056;2022-10-16T04:20:28;18.20;99.90
2282;DHT22;27486;48.77806476;9.16920056;2022-10-16T04:23:12;18.20;99.90
2282;DHT22;27486;48.77806476;9.16920056;2022-10-16T04:25:56;18.20;99.90
2282;DHT22;27486;48.77806476;9.16920056;2022-10-16T04:28:40;18.00;99.90
2282;DHT22;27486;48.77806476;9.16920056;2022-10-16T04:31:24;18.00;99.90
2282;DHT22;27486;48.77806476;9.16920056;2022-10-16T04:34:08;18.00;99.90
2282;DHT22;27486;48.77806476;9.16920056;2022-10-16T04:36:52;18.00;99.90
2282;DHT22;27486;48.77806476;9.16920056;2022-10-16T04:39:36;18.10;99.90
2282;DHT22;27486;48.77806476;9.16920056;2022-10-16T04:42:20;18.00;99.90
2282;DHT22;27486;48.77806476;9.16920056;2022-10-16T04:45:05;18.00;99.90
2282;DHT22;27486;48.77806476;9.16920056;2022-10-16T04:47:49;18.00;99.90
2282;DHT22;27486;48.77806476;9.16920056;2022-10-16T04:50:33;18.00;99.90
2282;DHT22;27486;48.77806476;9.16920056;2022-10-16T04:53:17;18.00;99.90
2282;DHT22;27486;48.77806476;9.16920056;2022-10-16T04:56:01;18.00;99.90
2282;DHT22;27486;48.77806476;9.16920056;2022-10-16T04:58:45;18.10;99.90
2282;DHT22;27486;48.77806476;9.16920056;2022-10-16T05:01:29;18.10;99.90
2282;DHT22;27486;48.77806476;9.16920056;2022-10-16T05:04:13;18.00;99.90
2282;DHT22;27486;48.77806476;9.16920056;2022-10-16T05:06:58;18.10;99.90
2282;DHT22;27486;48.77806476;9.16920056;2022-10-16T05:09:42;18.00;99.90
2282;DHT22;27486;48.77806476;9.16920056;2022-10-16T05:12:26;18.10;99.90
2282;DHT22;27486;48.77806476;9.16920056;2022-10-16T05:15:10;18.10;99.90
2282;DHT22;27486;48.77806476;9.16920056;2022-10-16T05:17:55;18.00;99.90
2282;DHT22;27486;48.77806476;9.16920056;2022-10-16T05:20:39;18.00;99.90
2282;DHT22;27486;48.77806476;9.16920056;2022-10-16T05:23:23;18.00;99.90
2282;DHT22;27486;48.77806476;9.16920056;2022-10-16T05:26:07;18.00;99.90
2282;DHT22;27486;48.77806476;9.16920056;2022-10-16T05:28:51;17.90;99.90
2282;DHT22;27486;48.77806476;9.16920056;2022-10-16T05:31:35;17.90;99.90
2282;DHT22;27486;48.77806476;9.16920056;2022-10-16T05:34:20;17.90;99.90
2282;DHT22;27486;48.77806476;9.16920056;2022-10-16T05:37:04;17.90;99.90
2282;DHT22;27486;48.77806476;9.16920056;2022-10-16T05:39:49;17.90;99.90
2282;DHT22;27486;48.77806476;9.16920056;2022-10-16T05:42:33;17.70;99.90
2282;DHT22;27486;48.77806476;9.16920056;2022-10-16T05:45:17;17.70;99.90
2282;DHT22;27486;48.77806476;9.16920056;2022-10-16T05:48:01;17.70;99.90
2282;DHT22;27486;48.77806476;9.16920056;2022-10-16T05:50:46;17.70;99.90
2282;DHT22;27486;48.77806476;9.16920056;2022-10-16T05:53:32;17.70;99.90
2282;DHT22;27486;48.77806476;9.16920056;2022-10-16T05:56:16;17.70;99.90
2282;DHT22;27486;48.77806476;9.16920056;2022-10-16T05:59:00;17.80;99.90
2282;DHT22;27486;48.77806476;9.16920056;2022-10-16T06:01:44;17.80;99.90
2282;DHT22;27486;48.77806476;9.16920056;2022-10-16T06:04:28;17.90;99.90
2282;DHT22;27486;48.77806476;9.16920056;2022-10-16T06:07:12;17.90;99.90
2282;DHT22;27486;48.77806476;9.16920056;2022-10-16T06:09:56;18.00;99.90
2282;DHT22;27486;48.77806476;9.16920056;2022-10-16T06:12:41;18.00;99.90
2282;DHT22;27486;48.77806476;9.16920056;2022-10-16T06:15:25;18.00;99.90
2282;DHT22;27486;48.77806476;9.16920056;2022-10-16T06:18:09;18.00;99.90
2282;DHT22;27486;48.77806476;9.16920056;2022-10-16T06:20:54;18.00;99.90
2282;DHT22;27486;48.77806476;9.16920056;2022-10-16T06:23:39;18.10;99.90
2282;DHT22;27486;48.77806476;9.16920056;2022-10-16T06:26:25;18.10;99.90
2282;DHT22;27486;48.77806476;9.16920056;2022-10-16T06:29:09;18.20;99.90
2282;DHT22;27486;48.77806476;9.16920056;2022-10-16T06:31:53;18.20;99.90
2282;DHT22;27486;48.77806476;9.16920056;2022-10-16T06:34:37;18.30;99.90
2282;DHT22;27486;48.77806476;9.16920056;2022-10-16T06:37:24;18.30;99.90
2282;DHT22;27486;48.77806476;9.16920056;2022-10-16T06:40:08;18.40;99.90
2282;DHT22;27486;48.77806476;9.16920056;2022-10-16T06:42:55;18.40;99.90
2282;DHT22;27486;48.77806476;9.16920056;2022-10-16T06:45:39;18.50;99.90
2282;DHT22;27486;48.77806476;9.16920056;2022-10-16T06:48:24;18.50;99.90
2282;DHT22;27486;48.77806476;9.16920056;2022-10-16T06:51:11;18.70;99.90
2282;DHT22;27486;48.77806476;9.16920056;2022-10-16T06:53:56;18.80;99.90
2282;DHT22;27486;48.77806476;9.16920056;2022-10-16T06:56:43;18.90;99.90
2282;DHT22;27486;48.77806476;9.16920056;2022-10-16T06:59:27;19.00;99.90
2282;DHT22;27486;48.77806476;9.16920056;2022-10-16T07:02:11;19.00;99.80
2282;DHT22;27486;48.77806476;9.16920056;2022-10-16T07:04:55;19.10;99.40
2282;DHT22;27486;48.77806476;9.16920056;2022-10-16T07:07:40;19.30;99.10
2282;DHT22;27486;48.77806476;9.16920056;2022-10-16T07:10:24;19.40;98.70
2282;DHT22;27486;48.77806476;9.16920056;2022-10-16T07:13:08;19.60;98.40
2282;DHT22;27486;48.77806476;9.16920056;2022-10-16T07:15:52;19.80;98.00
2282;DHT22;27486;48.77806476;9.16920056;2022-10-16T07:18:37;19.90;97.70
2282;DHT22;27486;48.77806476;9.16920056;2022-10-16T07:21:24;20.00;97.40
2282;DHT22;27486;48.77806476;9.16920056;2022-10-16T07:24:14;20.10;97.20
2282;DHT22;27486;48.77806476;9.16920056;2022-10-16T07:26:58;20.20;97.10
2282;DHT22;27486;48.77806476;9.16920056;2022-10-16T07:29:42;20.20;97.00
2282;DHT22;27486;48.77806476;9.16920056;2022-10-16T07:32:26;20.30;96.90
2282;DHT22;27486;48.77806476;9.16920056;2022-10-16T07:35:10;20.30;96.80
2282;DHT22;27486;48.77806476;9.16920056;2022-10-16T07:37:54;20.30;96.80
2282;DHT22;27486;48.77806476;9.16920056;2022-10-16T07:40:38;20.30;96.70
2282;DHT22;27486;48.77806476;9.16920056;2022-10-16T07:43:22;20.30;96.60
2282;DHT22;27486;48.77806476;9.16920056;2022-10-16T07:46:07;20.30;96.50
2282;DHT22;27486;48.77806476;9.16920056;2022-10-16T07:48:51;20.40;96.40
2282;DHT22;27486;48.77806476;9.16920056;2022-10-16T07:51:35;20.50;96.20
2282;DHT22;27486;48.77806476;9.16920056;2022-10-16T07:54:19;20.70;95.90
2282;DHT22;27486;48.77806476;9.16920056;2022-10-16T07:57:03;20.90;95.70
2282;DHT22;27486;48.77806476;9.16920056;2022-10-16T07:59:47;21.00;95.40
2282;DHT22;27486;48.77806476;9.16920056;2022-10-16T08:02:31;21.00;95.20
2282;DHT22;27486;48.77806476;9.16920056;2022-10-16T08:05:15;21.20;95.00
2282;DHT22;27486;48.77806476;9.16920056;2022-10-16T08:08:00;21.30;94.80
2282;DHT22;27486;48.77806476;9.16920056;2022-10-16T08:10:45;21.50;94.50
2282;DHT22;27486;48.77806476;9.16920056;2022-10-16T08:13:30;21.80;94.20
2282;DHT22;27486;48.77806476;9.16920056;2022-10-16T08:16:14;22.00;93.80
2282;DHT22;27486;48.77806476;9.16920056;2022-10-16T08:18:58;22.20;92.90
2282;DHT22;27486;48.77806476;9.16920056;2022-10-16T08:21:42;22.40;92.30
2282;DHT22;27486;48.77806476;9.16920056;2022-10-16T08:24:26;22.60;91.20
2282;DHT22;27486;48.77806476;9.16920056;2022-10-16T08:27:10;22.70;90.70
2282;DHT22;27486;48.77806476;9.16920056;2022-10-16T08:29:54;22.60;90.60
2282;DHT22;27486;48.77806476;9.16920056;2022-10-16T08:32:38;22.60;90.30
2282;DHT22;27486;48.77806476;9.16920056;2022-10-16T08:35:24;22.80;90.10
2282;DHT22;27486;48.77806476;9.16920056;2022-10-16T08:38:08;22.90;88.10
2282;DHT22;27486;48.77806476;9.16920056;2022-10-16T08:40:57;22.90;87.60
2282;DHT22;27486;48.77806476;9.16920056;2022-10-16T08:46:59;22.90;87.20
2282;DHT22;27486;48.77806476;9.16920056;2022-10-16T08:49:57;22.90;87.10
2282;DHT22;27486;48.77806476;9.16920056;2022-10-16T08:52:43;22.90;86.90
2282;DHT22;27486;48.77806476;9.16920056;2022-10-16T08:55:29;23.00;86.50
2282;DHT22;27486;48.77806476;9.16920056;2022-10-16T08:58:16;23.20;86.10
2282;DHT22;27486;48.77806476;9.16920056;2022-10-16T09:01:12;23.40;85.80
2282;DHT22;27486;48.77806476;9.16920056;2022-10-16T09:04:39;23.40;85.00
2282;DHT22;27486;48.77806476;9.16920056;2022-10-16T09:07:35;23.40;84.50
2282;DHT22;27486;48.77806476;9.16920056;2022-10-16T09:10:26;23.70;84.50
2282;DHT22;27486;48.77806476;9.16920056;2022-10-16T09:16:28;23.80;83.50
2282;DHT22;27486;48.77806476;9.16920056;2022-10-16T09:19:25;24.00;82.70
2282;DHT22;27486;48.77806476;9.16920056;2022-10-16T09:22:15;24.00;81.80
2282;DHT22;27486;48.77806476;9.16920056;2022-10-16T09:25:00;24.00;81.20
2282;DHT22;27486;48.77806476;9.16920056;2022-10-16T09:27:53;23.90;81.60
2282;DHT22;27486;48.77806476;9.16920056;2022-10-16T09:30:38;23.80;81.20
2282;DHT22;27486;48.77806476;9.16920056;2022-10-16T09:33:30;23.60;81.20
2282;DHT22;27486;48.77806476;9.16920056;2022-10-16T09:36:18;23.50;81.90
2282;DHT22;27486;48.77806476;9.16920056;2022-10-16T09:39:09;23.40;82.00
2282;DHT22;27486;48.77806476;9.16920056;2022-10-16T09:41:55;23.30;82.20
2282;DHT22;27486;48.77806476;9.16920056;2022-10-16T09:44:39;23.30;82.40
2282;DHT22;27486;48.77806476;9.16920056;2022-10-16T09:47:26;23.30;82.60
2282;DHT22;27486;48.77806476;9.16920056;2022-10-16T09:50:29;23.40;82.20
2282;DHT22;27486;48.77806476;9.16920056;2022-10-16T09:53:14;23.40;82.60
2282;DHT22;27486;48.77806476;9.16920056;2022-10-16T09:55:59;23.50;82.90
2282;DHT22;27486;48.77806476;9.16920056;2022-10-16T09:58:49;23.70;82.50
2282;DHT22;27486;48.77806476;9.16920056;2022-10-16T10:01:39;23.80;81.40
2282;DHT22;27486;48.77806476;9.16920056;2022-10-16T10:04:24;23.80;81.00
2282;DHT22;27486;48.77806476;9.16920056;2022-10-16T10:07:18;24.10;80.20
2282;DHT22;27486;48.77806476;9.16920056;2022-10-16T10:10:05;24.50;79.40
2282;DHT22;27486;48.77806476;9.16920056;2022-10-16T10:12:50;24.70;77.80
2282;DHT22;27486;48.77806476;9.16920056;2022-10-16T10:15:41;24.90;77.90
2282;DHT22;27486;48.77806476;9.16920056;2022-10-16T10:18:25;25.20;76.00
2282;DHT22;27486;48.77806476;9.16920056;2022-10-16T10:21:14;25.30;74.60
2282;DHT22;27486;48.77806476;9.16920056;2022-10-16T10:23:59;25.50;74.30
2282;DHT22;27486;48.77806476;9.16920056;2022-10-16T10:26:54;25.50;72.70
2282;DHT22;27486;48.77806476;9.16920056;2022-10-16T10:29:53;25.60;71.90
2282;DHT22;27486;48.77806476;9.16920056;2022-10-16T10:35:56;25.80;69.50
2282;DHT22;27486;48.77806476;9.16920056;2022-10-16T10:38:50;26.10;68.20
2282;DHT22;27486;48.77806476;9.16920056;2022-10-16T10:51:08;27.10;63.60
2282;DHT22;27486;48.77806476;9.16920056;2022-10-16T10:54:13;26.70;66.30
2282;DHT22;27486;48.77806476;9.16920056;2022-10-16T10:57:22;26.50;68.00
2282;DHT22;27486;48.77806476;9.16920056;2022-10-16T11:00:20;26.10;69.70
2282;DHT22;27486;48.77806476;9.16920056;2022-10-16T11:03:25;25.90;70.90
2282;DHT22;27486;48.77806476;9.16920056;2022-10-16T11:07:00;25.80;71.20
2282;DHT22;27486;48.77806476;9.16920056;2022-10-16T11:09:36;25.80;70.90
2282;DHT22;27486;48.77806476;9.16920056;2022-10-16T11:12:24;25.60;70.60
2282;DHT22;27486;48.77806476;9.16920056;2022-10-16T11:20:57;25.40;71.40
2282;DHT22;27486;48.77806476;9.16920056;2022-10-16T11:23:54;25.50;70.70
2282;DHT22;27486;48.77806476;9.16920056;2022-10-16T11:26:42;25.60;70.10
2282;DHT22;27486;48.77806476;9.16920056;2022-10-16T11:29:31;25.70;70.10
2282;DHT22;27486;48.77806476;9.16920056;2022-10-16T11:32:42;25.60;69.80
2282;DHT22;27486;48.77806476;9.16920056;2022-10-16T11:35:44;25.60;70.70
2282;DHT22;27486;48.77806476;9.16920056;2022-10-16T11:44:36;25.60;70.90
2282;DHT22;27486;48.77806476;9.16920056;2022-10-16T11:56:36;25.90;68.70
2282;DHT22;27486;48.77806476;9.16920056;2022-10-16T11:59:31;26.10;67.60
2282;DHT22;27486;48.77806476;9.16920056;2022-10-16T12:08:34;26.50;64.10
2282;DHT22;27486;48.77806476;9.16920056;2022-10-16T12:17:43;26.50;59.50
2282;DHT22;27486;48.77806476;9.16920056;2022-10-16T12:23:03;26.60;59.10
2282;DHT22;27486;48.77806476;9.16920056;2022-10-16T12:25:54;26.80;58.60
2282;DHT22;27486;48.77806476;9.16920056;2022-10-16T12:28:39;27.10;58.70
2282;DHT22;27486;48.77806476;9.16920056;2022-10-16T12:31:37;27.50;58.40
2282;DHT22;27486;48.77806476;9.16920056;2022-10-16T12:34:38;27.90;57.60
2282;DHT22;27486;48.77806476;9.16920056;2022-10-16T12:37:30;28.30;56.90
2282;DHT22;27486;48.77806476;9.16920056;2022-10-16T12:40:30;28.40;56.50
2282;DHT22;27486;48.77806476;9.16920056;2022-10-16T12:43:26;28.30;55.90
2282;DHT22;27486;48.77806476;9.16920056;2022-10-16T12:51:57;27.30;58.00
2282;DHT22;27486;48.77806476;9.16920056;2022-10-16T12:54:42;27.00;58.80
2282;DHT22;27486;48.77806476;9.16920056;2022-10-16T13:00:50;26.50;60.70
2282;DHT22;27486;48.77806476;9.16920056;2022-10-16T13:13:12;26.10;62.10
2282;DHT22;27486;48.77806476;9.16920056;2022-10-16T13:19:18;26.50;61.70
2282;DHT22;27486;48.77806476;9.16920056;2022-10-16T13:22:27;26.70;60.90
2282;DHT22;27486;48.77806476;9.16920056;2022-10-16T13:28:28;27.10;58.50
2282;DHT22;27486;48.77806476;9.16920056;2022-10-16T13:31:23;27.10;58.50
2282;DHT22;27486;48.77806476;9.16920056;2022-10-16T13:34:14;27.20;58.00
2282;DHT22;27486;48.77806476;9.16920056;2022-10-16T13:36:59;27.20;58.00
2282;DHT22;27486;48.77806476;9.16920056;2022-10-16T13:39:43;27.50;57.90
2282;DHT22;27486;48.77806476;9.16920056;2022-10-16T13:42:28;27.70;57.20
2282;DHT22;27486;48.77806476;9.16920056;2022-10-16T13:45:24;28.00;56.30
2282;DHT22;27486;48.77806476;9.16920056;2022-10-16T13:48:09;28.10;56.30
2282;DHT22;27486;48.77806476;9.16920056;2022-10-16T13:51:17;28.30;55.60
2282;DHT22;27486;48.77806476;9.16920056;2022-10-16T13:54:01;28.30;55.40
2282;DHT22;27486;48.77806476;9.16920056;2022-10-16T13:56:45;28.30;55.00
2282;DHT22;27486;48.77806476;9.16920056;2022-10-16T13:59:34;28.30;55.10
2282;DHT22;27486;48.77806476;9.16920056;2022-10-16T14:02:25;28.30;55.10
2282;DHT22;27486;48.77806476;9.16920056;2022-10-16T14:05:11;28.10;55.20
2282;DHT22;27486;48.77806476;9.16920056;2022-10-16T14:07:58;28.00;55.20
2282;DHT22;27486;48.77806476;9.16920056;2022-10-16T14:10:47;27.80;55.30
2282;DHT22;27486;48.77806476;9.16920056;2022-10-16T14:13:37;27.70;55.20
2282;DHT22;27486;48.77806476;9.16920056;2022-10-16T14:16:25;27.70;55.20
2282;DHT22;27486;48.77806476;9.16920056;2022-10-16T14:22:39;28.00;55.30
2282;DHT22;27486;48.77806476;9.16920056;2022-10-16T14:25:31;28.10;54.80
2282;DHT22;27486;48.77806476;9.16920056;2022-10-16T14:28:19;28.10;54.60
2282;DHT22;27486;48.77806476;9.16920056;2022-10-16T14:31:27;28.20;54.40
2282;DHT22;27486;48.77806476;9.16920056;2022-10-16T14:34:29;28.20;54.50
2282;DHT22;27486;48.77806476;9.16920056;2022-10-16T14:37:26;28.20;54.50
2282;DHT22;27486;48.77806476;9.16920056;2022-10-16T14:40:14;28.20;54.50
2282;DHT22;27486;48.77806476;9.16920056;2022-10-16T14:43:00;28.20;54.70
2282;DHT22;27486;48.77806476;9.16920056;2022-10-16T14:45:51;28.10;53.60
2282;DHT22;27486;48.77806476;9.16920056;2022-10-16T14:48:43;28.10;53.50
2282;DHT22;27486;48.77806476;9.16920056;2022-10-16T14:51:27;28.20;53.50
2282;DHT22;27486;48.77806476;9.16920056;2022-10-16T14:54:12;28.30;53.50
2282;DHT22;27486;48.77806476;9.16920056;2022-10-16T14:56:58;28.30;53.00
2282;DHT22;27486;48.77806476;9.16920056;2022-10-16T14:59:42;28.30;52.80
2282;DHT22;27486;48.77806476;9.16920056;2022-10-16T15:02:33;28.20;52.70
2282;DHT22;27486;48.77806476;9.16920056;2022-10-16T15:05:24;28.10;53.80
2282;DHT22;27486;48.77806476;9.16920056;2022-10-16T15:08:09;27.90;55.20
2282;DHT22;27486;48.77806476;9.16920056;2022-10-16T15:10:54;27.80;56.10
2282;DHT22;27486;48.77806476;9.16920056;2022-10-16T15:13:38;27.70;56.70
2282;DHT22;27486;48.77806476;9.16920056;2022-10-16T15:16:23;27.70;57.20
2282;DHT22;27486;48.77806476;9.16920056;2022-10-16T15:19:07;27.70;57.60
2282;DHT22;27486;48.77806476;9.16920056;2022-10-16T15:21:51;27.80;58.10
2282;DHT22;27486;48.77806476;9.16920056;2022-10-16T15:24:36;28.00;58.00
2282;DHT22;27486;48.77806476;9.16920056;2022-10-16T15:27:20;28.60;57.00
2282;DHT22;27486;48.77806476;9.16920056;2022-10-16T15:30:04;29.00;55.80
2282;DHT22;27486;48.77806476;9.16920056;2022-10-16T15:32:48;29.30;55.10
2282;DHT22;27486;48.77806476;9.16920056;2022-10-16T15:35:39;29.50;54.60
2282;DHT22;27486;48.77806476;9.16920056;2022-10-16T15:38:22;29.30;54.60
2282;DHT22;27486;48.77806476;9.16920056;2022-10-16T15:41:07;29.10;54.70
2282;DHT22;27486;48.77806476;9.16920056;2022-10-16T15:43:51;28.90;54.90
2282;DHT22;27486;48.77806476;9.16920056;2022-10-16T15:46:36;28.60;55.40
2282;DHT22;27486;48.77806476;9.16920056;2022-10-16T15:49:21;28.30;56.10
2282;DHT22;27486;48.77806476;9.16920056;2022-10-16T15:52:04;28.20;56.90
2282;DHT22;27486;48.77806476;9.16920056;2022-10-16T15:54:48;28.40;57.00
2282;DHT22;27486;48.77806476;9.16920056;2022-10-16T15:57:32;28.40;56.80
2282;DHT22;27486;48.77806476;9.16920056;2022-10-16T16:00:19;28.20;57.10
2282;DHT22;27486;48.77806476;9.16920056;2022-10-16T16:03:06;28.00;57.60
2282;DHT22;27486;48.77806476;9.16920056;2022-10-16T16:05:50;27.70;58.30
2282;DHT22;27486;48.77806476;9.16920056;2022-10-16T16:08:34;27.60;58.80
2282;DHT22;27486;48.77806476;9.16920056;2022-10-16T16:11:19;27.50;59.30
2282;DHT22;27486;48.77806476;9.16920056;2022-10-16T16:14:06;27.30;59.70
2282;DHT22;27486;48.77806476;9.16920056;2022-10-16T16:16:51;26.90;60.50
2282;DHT22;27486;48.77806476;9.16920056;2022-10-16T16:19:35;26.70;61.30
2282;DHT22;27486;48.77806476;9.16920056;2022-10-16T16:22:19;26.40;62.30
2282;DHT22;27486;48.77806476;9.16920056;2022-10-16T16:25:03;26.10;63.30
2282;DHT22;27486;48.77806476;9.16920056;2022-10-16T16:27:47;25.80;64.60
2282;DHT22;27486;48.77806476;9.16920056;2022-10-16T16:30:31;25.50;65.70
2282;DHT22;27486;48.77806476;9.16920056;2022-10-16T16:33:15;25.30;66.60
2282;DHT22;27486;48.77806476;9.16920056;2022-10-16T16:35:59;25.00;67.60
2282;DHT22;27486;48.77806476;9.16920056;2022-10-16T16:38:44;24.70;69.20
2282;DHT22;27486;48.77806476;9.16920056;2022-10-16T16:41:29;24.50;71.00
2282;DHT22;27486;48.77806476;9.16920056;2022-10-16T16:44:14;24.30;71.90
2282;DHT22;27486;48.77806476;9.16920056;2022-10-16T16:46:59;24.20;73.30
2282;DHT22;27486;48.77806476;9.16920056;2022-10-16T16:49:43;23.90;74.80
2282;DHT22;27486;48.77806476;9.16920056;2022-10-16T16:52:28;23.70;76.40
2282;DHT22;27486;48.77806476;9.16920056;2022-10-16T16:55:13;23.60;77.10